createdAt,value
2022-11-30T00:00:33.612Z,5.97
2022-11-30T00:03:01.041Z,5.00
2022-11-30T00:05:28.950Z,5.03
2022-11-30T00:08:05.876Z,5.78
2022-11-30T00:10:47.568Z,5.93
2022-11-30T00:13:25.098Z,4.40
2022-11-30T00:15:55.476Z,4.78
2022-11-30T00:18:43.948Z,6.10
2022-11-30T00:21:41.003Z,5.05
2022-11-30T00:24:15.300Z,5.70
2022-11-30T00:26:44.845Z,5.78
2022-11-30T00:29:12.992Z,5.07
2022-11-30T00:31:42.500Z,5.75
2022-11-30T00:34:14.942Z,5.68
2022-11-30T00:36:54.010Z,5.38
2022-11-30T00:39:22.949Z,6.53
2022-11-30T00:41:53.744Z,6.03
2022-11-30T00:44:33.284Z,4.82
2022-11-30T00:47:50.912Z,5.43
2022-11-30T00:50:22.554Z,5.28
2022-11-30T00:52:50.420Z,5.53
2022-11-30T00:55:17.814Z,5.35
2022-11-30T00:57:48.216Z,6.43
2022-11-30T01:00:18.039Z,5.60
2022-11-30T01:02:48.689Z,5.97
2022-11-30T01:05:23.053Z,5.47
2022-11-30T01:07:56.628Z,6.07
2022-11-30T01:10:28.713Z,5.57
2022-11-30T01:13:00.122Z,6.05
2022-11-30T01:15:29.055Z,6.68
2022-11-30T01:17:59.207Z,6.13
2022-11-30T01:20:33.599Z,6.97
2022-11-30T01:26:04.055Z,5.88
2022-11-30T01:28:36.910Z,4.78
2022-11-30T01:31:07.245Z,5.38
2022-11-30T01:33:37.417Z,5.18
2022-11-30T01:36:17.131Z,6.30
2022-11-30T01:38:50.739Z,4.93
2022-11-30T01:41:21.930Z,6.72
2022-11-30T01:44:20.010Z,5.53
2022-11-30T01:47:10.974Z,4.93
2022-11-30T01:52:38.011Z,5.22
2022-11-30T01:55:26.636Z,5.47
2022-11-30T01:58:19.851Z,5.88
2022-11-30T02:00:50.180Z,6.75
2022-11-30T02:03:42.696Z,6.28
2022-11-30T02:06:13.563Z,6.57
2022-11-30T02:08:41.123Z,5.35
2022-11-30T02:11:14.645Z,5.93
2022-11-30T02:13:59.057Z,5.38
2022-11-30T02:16:54.183Z,5.57
2022-11-30T02:19:54.041Z,5.03
2022-11-30T02:22:46.911Z,4.22
2022-11-30T02:25:42.500Z,4.28
2022-11-30T02:28:39.629Z,4.30
2022-11-30T02:31:29.767Z,5.45
2022-11-30T02:33:59.661Z,4.80
2022-11-30T02:36:28.817Z,5.80
2022-11-30T02:39:11.461Z,5.28
2022-11-30T02:41:40.926Z,4.45
2022-11-30T02:44:11.042Z,5.13
2022-11-30T02:47:02.571Z,5.55
2022-11-30T02:49:55.174Z,5.60
2022-11-30T02:52:33.134Z,6.28
2022-11-30T02:55:15.726Z,6.38
2022-11-30T02:57:46.068Z,5.85
2022-11-30T03:00:21.081Z,4.70
2022-11-30T03:02:54.824Z,5.85
2022-11-30T03:05:39.564Z,4.88
2022-11-30T03:08:17.371Z,5.25
2022-11-30T03:10:45.523Z,5.15
2022-11-30T03:13:12.951Z,5.13
2022-11-30T03:15:49.515Z,3.83
2022-11-30T03:18:22.957Z,4.72
2022-11-30T03:20:50.200Z,4.65
2022-11-30T03:23:18.713Z,3.80
2022-11-30T03:25:48.559Z,5.45
2022-11-30T03:28:37.420Z,3.72
2022-11-30T03:31:05.368Z,4.38
2022-11-30T03:33:33.133Z,5.20
2022-11-30T03:36:13.384Z,5.88
2022-11-30T03:38:51.354Z,4.63
2022-11-30T03:41:28.354Z,5.32
2022-11-30T03:43:56.131Z,5.28
2022-11-30T03:46:23.764Z,5.82
2022-11-30T03:48:55.867Z,4.85
2022-11-30T03:51:23.172Z,4.30
2022-11-30T03:54:27.994Z,4.53
2022-11-30T03:56:59.081Z,4.28
2022-11-30T03:59:40.531Z,5.43
2022-11-30T04:02:22.572Z,7.25
2022-11-30T04:05:00.185Z,5.65
2022-11-30T04:07:27.926Z,8.60
2022-11-30T04:09:55.907Z,7.60
2022-11-30T04:12:24.883Z,5.47
2022-11-30T04:14:55.586Z,5.50
2022-11-30T04:17:22.921Z,7.00
2022-11-30T04:19:50.241Z,6.82
2022-11-30T04:22:18.145Z,6.95
2022-11-30T04:24:46.006Z,6.38
2022-11-30T04:27:26.304Z,6.65
2022-11-30T04:29:53.521Z,6.45
2022-11-30T04:32:23.766Z,6.28
2022-11-30T04:34:50.990Z,6.22
2022-11-30T04:37:22.328Z,6.13
2022-11-30T04:39:52.736Z,5.95
2022-11-30T04:42:22.606Z,7.10
2022-11-30T04:44:50.451Z,5.78
2022-11-30T04:47:25.146Z,6.35
2022-11-30T04:49:52.934Z,5.35
2022-11-30T04:52:27.388Z,6.15
2022-11-30T04:54:57.034Z,7.07
2022-11-30T04:57:27.163Z,7.25
2022-11-30T05:00:17.792Z,7.95
2022-11-30T05:02:53.330Z,6.78
2022-11-30T05:05:51.882Z,5.97
2022-11-30T05:08:20.752Z,7.78
2022-11-30T05:10:54.843Z,8.20
2022-11-30T05:13:23.967Z,5.57
2022-11-30T05:15:54.198Z,5.82
2022-11-30T05:18:24.982Z,6.47
2022-11-30T05:20:55.648Z,4.65
2022-11-30T05:23:32.898Z,8.00
2022-11-30T05:26:07.632Z,6.95
2022-11-30T05:28:37.903Z,8.43
2022-11-30T05:31:19.700Z,9.10
2022-11-30T05:33:54.056Z,11.10
2022-11-30T05:36:29.551Z,8.18
2022-11-30T05:39:08.834Z,9.10
2022-11-30T05:41:38.856Z,8.80
2022-11-30T05:44:16.784Z,9.93
2022-11-30T05:46:48.734Z,7.88
2022-11-30T05:49:20.789Z,8.95
2022-11-30T05:54:15.942Z,9.02
2022-11-30T05:56:54.459Z,8.65
2022-11-30T05:59:31.593Z,8.63
2022-11-30T06:02:04.918Z,9.93
2022-11-30T06:04:40.916Z,9.35
2022-11-30T06:07:12.627Z,9.95
2022-11-30T06:09:40.419Z,10.18
2022-11-30T06:12:08.802Z,10.30
2022-11-30T06:14:45.795Z,8.40
2022-11-30T06:17:16.210Z,8.73
2022-11-30T06:20:03.758Z,9.25
2022-11-30T06:22:53.092Z,8.70
2022-11-30T06:25:28.550Z,9.43
2022-11-30T06:28:03.513Z,9.98
2022-11-30T06:30:33.398Z,10.07
2022-11-30T06:33:11.710Z,8.40
2022-11-30T06:36:18.196Z,8.32
2022-11-30T06:39:00.437Z,8.10
2022-11-30T06:41:54.438Z,10.05
2022-11-30T06:44:33.436Z,10.70
2022-11-30T06:47:10.628Z,8.38
2022-11-30T06:49:43.170Z,10.57
2022-11-30T06:52:45.272Z,10.82
2022-11-30T06:55:15.075Z,7.38
2022-11-30T06:57:55.000Z,9.32
2022-11-30T07:04:12.386Z,8.25
2022-11-30T07:06:48.170Z,7.40
2022-11-30T07:09:16.603Z,9.60
2022-11-30T07:12:45.875Z,11.43
2022-11-30T07:15:21.310Z,8.75
2022-11-30T07:27:04.363Z,9.30
2022-11-30T07:29:35.236Z,9.40
2022-11-30T07:32:08.389Z,9.55
2022-11-30T07:34:40.791Z,10.35
2022-11-30T07:37:08.457Z,11.23
2022-11-30T07:39:40.299Z,8.38
2022-11-30T07:42:07.588Z,10.05
2022-11-30T07:44:43.660Z,11.48
2022-11-30T07:47:18.438Z,9.48
2022-11-30T07:50:06.219Z,9.60
2022-11-30T07:52:34.257Z,13.48
2022-11-30T07:55:01.603Z,11.90
2022-11-30T07:57:30.492Z,11.05
2022-11-30T07:59:58.077Z,11.35
2022-11-30T08:02:26.307Z,11.90
2022-11-30T08:04:55.670Z,11.50
2022-11-30T08:07:26.518Z,11.25
2022-11-30T08:09:56.715Z,11.00
2022-11-30T08:12:23.875Z,9.95
2022-11-30T08:15:18.647Z,8.25
2022-11-30T08:17:39.264Z,9.57
2022-11-30T08:20:13.494Z,11.90
2022-11-30T08:22:48.260Z,11.30
2022-11-30T08:25:15.473Z,9.90
2022-11-30T08:27:43.210Z,10.20
2022-11-30T08:30:11.799Z,12.80
2022-11-30T08:32:39.197Z,10.65
2022-11-30T08:35:07.183Z,9.48
2022-11-30T08:37:38.410Z,12.27
2022-11-30T08:40:14.351Z,10.65
2022-11-30T08:42:41.768Z,9.27
2022-11-30T08:45:12.735Z,11.15
2022-11-30T08:50:45.412Z,13.48
2022-11-30T08:56:06.840Z,11.32
2022-11-30T08:58:48.480Z,11.50
2022-11-30T09:01:21.974Z,13.05
2022-11-30T09:03:52.486Z,13.27
2022-11-30T09:06:22.927Z,10.65
2022-11-30T09:08:52.442Z,12.27
2022-11-30T09:11:26.219Z,10.07
2022-11-30T09:13:57.565Z,9.30
2022-11-30T09:16:26.078Z,9.15
2022-11-30T09:18:54.490Z,9.20
2022-11-30T09:21:24.542Z,10.27
2022-11-30T09:23:53.246Z,9.07
2022-11-30T09:26:24.386Z,7.75
2022-11-30T09:28:52.869Z,8.30
2022-11-30T09:31:25.272Z,9.45
2022-11-30T09:33:54.616Z,9.48
2022-11-30T09:36:24.252Z,8.35
2022-11-30T09:38:51.579Z,7.82
2022-11-30T09:41:54.162Z,9.25
2022-11-30T09:44:55.646Z,9.40
2022-11-30T09:47:35.571Z,10.57
2022-11-30T09:50:14.499Z,11.70
2022-11-30T09:53:33.936Z,11.75
2022-11-30T09:56:01.949Z,13.25
2022-11-30T09:58:52.164Z,20.02
2022-11-30T10:01:37.739Z,18.42
2022-11-30T10:04:23.822Z,9.90
2022-11-30T10:07:08.686Z,9.55
2022-11-30T10:10:30.249Z,7.75
2022-11-30T10:13:36.318Z,8.85
2022-11-30T10:16:17.488Z,11.15
2022-11-30T10:19:01.493Z,10.98
2022-11-30T10:22:11.360Z,11.85
2022-11-30T10:25:24.054Z,11.88
2022-11-30T10:28:24.337Z,9.80
2022-11-30T10:30:56.725Z,9.13
2022-11-30T10:33:37.050Z,10.90
2022-11-30T10:36:35.699Z,10.55
2022-11-30T10:39:14.267Z,8.13
2022-11-30T10:42:08.491Z,8.93
2022-11-30T10:44:44.876Z,7.97
2022-11-30T10:48:04.983Z,8.63
2022-11-30T10:50:32.849Z,9.25
2022-11-30T10:53:03.400Z,9.45
2022-11-30T10:55:36.533Z,8.82
2022-11-30T10:58:20.900Z,10.10
2022-11-30T11:01:05.866Z,13.05
2022-11-30T11:03:40.548Z,8.77
2022-11-30T11:06:23.670Z,11.70
2022-11-30T11:08:55.535Z,13.20
2022-11-30T11:11:50.635Z,12.02
2022-11-30T11:14:24.258Z,8.70
2022-11-30T11:17:00.370Z,11.73
2022-11-30T11:19:36.700Z,11.60
2022-11-30T11:22:28.695Z,12.20
2022-11-30T11:25:31.998Z,14.23
2022-11-30T11:28:15.141Z,10.68
2022-11-30T11:30:42.946Z,12.70
2022-11-30T11:33:19.133Z,12.48
2022-11-30T11:35:57.512Z,12.25
2022-11-30T11:38:42.539Z,11.52
2022-11-30T11:41:29.196Z,11.77
2022-11-30T11:44:03.514Z,13.52
2022-11-30T11:46:41.791Z,12.10
2022-11-30T11:52:24.029Z,10.80
2022-11-30T11:55:23.169Z,11.95
2022-11-30T11:58:02.912Z,11.35
2022-11-30T12:00:36.597Z,12.02
2022-11-30T12:03:46.221Z,12.38
2022-11-30T12:06:28.311Z,12.88
2022-11-30T12:09:14.489Z,13.73
2022-11-30T12:11:49.218Z,10.43
2022-11-30T12:14:19.675Z,11.07
2022-11-30T12:17:15.071Z,13.30
2022-11-30T12:20:11.977Z,15.23
2022-11-30T12:23:05.796Z,14.23
2022-11-30T12:26:14.229Z,16.48
2022-11-30T12:29:00.714Z,12.63
2022-11-30T12:31:47.050Z,12.00
2022-11-30T12:34:54.854Z,15.38
2022-11-30T12:37:47.688Z,17.55
2022-11-30T12:40:41.147Z,17.25
2022-11-30T12:43:43.673Z,13.77
2022-11-30T12:46:22.462Z,11.65
2022-11-30T12:48:57.261Z,15.75
2022-11-30T12:54:53.177Z,12.80
2022-11-30T12:57:35.241Z,14.52
2022-11-30T13:00:28.967Z,13.57
2022-11-30T13:03:22.839Z,15.80
2022-11-30T13:06:20.926Z,25.75
2022-11-30T13:09:04.966Z,16.27
2022-11-30T13:11:38.920Z,16.55
2022-11-30T13:14:21.779Z,13.77
2022-11-30T13:16:53.203Z,13.43
2022-11-30T13:19:29.648Z,18.80
2022-11-30T13:22:06.387Z,20.52
2022-11-30T13:24:42.368Z,13.43
2022-11-30T13:27:22.720Z,13.98
2022-11-30T13:29:59.531Z,27.17
2022-11-30T13:35:32.958Z,11.32
2022-11-30T13:41:09.322Z,13.95
2022-11-30T13:43:50.042Z,12.25
2022-11-30T13:46:24.351Z,14.65
2022-11-30T13:49:30.713Z,10.45
2022-11-30T13:52:21.663Z,16.75
2022-11-30T13:54:51.357Z,17.50
2022-11-30T13:57:24.780Z,18.90
2022-11-30T13:59:52.994Z,11.63
2022-11-30T14:02:33.090Z,11.10
2022-11-30T14:05:22.030Z,13.60
2022-11-30T14:07:54.704Z,13.13
2022-11-30T14:10:39.440Z,10.93
2022-11-30T14:15:41.031Z,15.25
2022-11-30T14:18:08.149Z,15.65
2022-11-30T14:20:45.858Z,14.52
2022-11-30T14:23:17.651Z,15.63
2022-11-30T14:25:52.864Z,15.48
2022-11-30T14:28:26.134Z,18.65
2022-11-30T14:30:56.352Z,23.40
2022-11-30T14:33:30.985Z,14.43
2022-11-30T14:36:00.873Z,17.50
2022-11-30T14:38:33.382Z,15.93
2022-11-30T14:41:01.148Z,16.98
2022-11-30T14:43:30.029Z,14.68
2022-11-30T14:46:05.727Z,15.18
2022-11-30T14:48:36.319Z,17.92
2022-11-30T14:51:24.111Z,18.58
2022-11-30T14:54:01.023Z,13.05
2022-11-30T14:56:45.687Z,14.45
2022-11-30T14:59:50.572Z,13.93
2022-11-30T15:02:33.776Z,11.10
2022-11-30T15:05:07.337Z,16.90
2022-11-30T15:07:38.167Z,20.33
2022-11-30T15:10:12.056Z,14.50
2022-11-30T15:12:42.237Z,17.83
2022-11-30T15:15:18.713Z,15.68
2022-11-30T15:17:59.132Z,16.92
2022-11-30T15:20:36.824Z,15.25
2022-11-30T15:23:04.382Z,12.27
2022-11-30T15:25:37.727Z,10.90
2022-11-30T15:28:07.349Z,14.00
2022-11-30T15:30:40.847Z,14.25
2022-11-30T15:33:21.140Z,11.10
2022-11-30T15:36:14.138Z,16.73
2022-11-30T15:38:43.459Z,12.57
2022-11-30T15:41:23.723Z,15.57
2022-11-30T15:43:57.143Z,13.13
2022-11-30T15:46:38.635Z,15.75
2022-11-30T15:49:23.132Z,15.35
2022-11-30T15:52:08.086Z,16.70
2022-11-30T15:54:47.547Z,15.95
2022-11-30T15:57:16.767Z,22.13
2022-11-30T15:59:44.161Z,23.77
2022-11-30T16:02:32.353Z,19.85
2022-11-30T16:05:22.316Z,19.35
2022-11-30T16:07:56.464Z,19.92
2022-11-30T16:10:38.186Z,14.93
2022-11-30T16:13:06.763Z,17.08
2022-11-30T16:15:36.932Z,16.75
2022-11-30T16:18:19.029Z,15.23
2022-11-30T16:20:50.203Z,16.63
2022-11-30T16:23:19.839Z,12.73
2022-11-30T16:25:49.322Z,13.70
2022-11-30T16:28:18.065Z,17.10
2022-11-30T16:30:46.657Z,16.08
2022-11-30T16:33:29.400Z,17.42
2022-11-30T16:36:00.917Z,20.70
2022-11-30T16:38:30.518Z,18.95
2022-11-30T16:41:13.302Z,15.35
2022-11-30T16:43:41.583Z,37.90
2022-11-30T16:46:13.945Z,29.90
2022-11-30T16:48:41.682Z,18.92
2022-11-30T16:51:20.640Z,22.60
2022-11-30T16:53:48.097Z,20.30
2022-11-30T16:56:15.804Z,31.88
2022-11-30T16:58:44.527Z,18.80
2022-11-30T17:01:16.627Z,18.00
2022-11-30T17:03:47.553Z,19.48
2022-11-30T17:06:18.787Z,20.45
2022-11-30T17:08:47.034Z,21.85
2022-11-30T17:11:37.789Z,20.52
2022-11-30T17:16:33.371Z,14.32
2022-11-30T17:19:00.799Z,14.40
2022-11-30T17:21:34.895Z,12.60
2022-11-30T17:24:03.134Z,16.40
2022-11-30T17:26:30.485Z,15.48
2022-11-30T17:28:57.964Z,12.82
2022-11-30T17:31:25.934Z,27.10
2022-11-30T17:33:52.945Z,46.72
2022-11-30T17:36:20.751Z,20.40
2022-11-30T17:38:48.645Z,23.42
2022-11-30T17:41:20.564Z,18.48
2022-11-30T17:43:48.952Z,15.80
2022-11-30T17:46:17.936Z,29.13
2022-11-30T17:48:47.793Z,39.35
2022-11-30T17:51:15.002Z,16.40
2022-11-30T17:53:44.335Z,14.32
2022-11-30T17:56:17.113Z,16.55
2022-11-30T17:58:45.466Z,14.02
2022-11-30T18:01:18.548Z,15.63
2022-11-30T18:03:46.416Z,15.32
2022-11-30T18:06:14.113Z,26.10
2022-11-30T18:08:41.464Z,14.25
2022-11-30T18:11:10.254Z,13.73
2022-11-30T18:13:37.898Z,13.20
2022-11-30T18:16:29.907Z,12.63
2022-11-30T18:18:58.836Z,12.65
2022-11-30T18:21:29.823Z,11.55
2022-11-30T18:23:58.633Z,14.70
2022-11-30T18:26:27.826Z,15.63
2022-11-30T18:29:00.106Z,13.98
2022-11-30T18:31:30.227Z,12.13
2022-11-30T18:34:06.068Z,15.07
2022-11-30T18:36:34.079Z,18.08
2022-11-30T18:39:01.181Z,14.60
2022-11-30T18:41:30.594Z,13.18
2022-11-30T18:43:58.511Z,15.95
2022-11-30T18:46:27.325Z,14.95
2022-11-30T18:48:54.990Z,15.68
2022-11-30T18:51:33.389Z,13.40
2022-11-30T18:54:06.071Z,13.98
2022-11-30T18:56:36.138Z,15.40
2022-11-30T18:59:07.432Z,16.25
2022-11-30T19:01:36.383Z,21.60
2022-11-30T19:04:06.826Z,21.20
2022-11-30T19:06:34.855Z,14.82
2022-11-30T19:09:05.100Z,14.75
2022-11-30T19:11:33.797Z,13.15
2022-11-30T19:14:01.649Z,15.15
2022-11-30T19:16:31.064Z,14.23
2022-11-30T19:19:04.159Z,13.98
2022-11-30T19:21:32.065Z,14.38
2022-11-30T19:23:59.686Z,14.50
2022-11-30T19:26:28.585Z,14.45
2022-11-30T19:28:57.191Z,14.73
2022-11-30T19:31:25.784Z,16.00
2022-11-30T19:33:55.056Z,15.02
2022-11-30T19:36:30.295Z,15.80
2022-11-30T19:39:00.093Z,14.70
2022-11-30T19:41:27.556Z,14.07
2022-11-30T19:44:03.511Z,15.57
2022-11-30T19:46:33.076Z,16.05
2022-11-30T19:49:01.957Z,16.52
2022-11-30T19:51:31.029Z,15.13
2022-11-30T19:54:06.478Z,15.90
2022-11-30T19:56:37.937Z,16.45
2022-11-30T19:59:06.238Z,15.40
2022-11-30T20:01:40.236Z,14.20
2022-11-30T20:04:07.964Z,16.52
2022-11-30T20:06:38.034Z,18.27
2022-11-30T20:09:06.913Z,14.35
2022-11-30T20:11:34.882Z,18.17
2022-11-30T20:14:02.506Z,17.27
2022-11-30T20:16:29.899Z,17.65
2022-11-30T20:19:00.850Z,15.38
2022-11-30T20:21:31.568Z,14.10
2022-11-30T20:24:01.777Z,14.90
2022-11-30T20:26:35.716Z,15.65
2022-11-30T20:29:04.783Z,15.55
2022-11-30T20:31:35.127Z,14.60
2022-11-30T20:34:02.750Z,13.45
2022-11-30T20:36:30.257Z,16.00
2022-11-30T20:38:59.891Z,13.80
2022-11-30T20:41:28.217Z,15.23
2022-11-30T20:43:55.703Z,17.10
2022-11-30T20:46:35.305Z,24.05
2022-11-30T20:49:05.092Z,23.30
2022-11-30T20:51:35.063Z,26.17
2022-11-30T20:54:05.702Z,20.67
2022-11-30T20:56:36.741Z,16.70
2022-11-30T20:59:07.502Z,21.17
2022-11-30T21:01:35.536Z,17.83
2022-11-30T21:04:05.003Z,16.63
2022-11-30T21:06:33.116Z,23.30
2022-11-30T21:09:00.576Z,20.45
2022-11-30T21:11:34.681Z,15.68
2022-11-30T21:14:01.942Z,18.92
2022-11-30T21:16:33.663Z,19.05
2022-11-30T21:19:01.650Z,20.92
2022-11-30T21:21:32.729Z,20.30
2022-11-30T21:24:02.017Z,21.55
2022-11-30T21:26:32.757Z,17.05
2022-11-30T21:29:02.269Z,19.42
2022-11-30T21:31:30.419Z,16.25
2022-11-30T21:33:58.205Z,14.57
2022-11-30T21:36:25.339Z,14.80
2022-11-30T21:39:04.396Z,15.20
2022-11-30T21:41:33.222Z,14.60
2022-11-30T21:44:00.624Z,12.88
2022-11-30T21:46:28.230Z,12.30
2022-11-30T21:48:55.522Z,13.10
2022-11-30T21:51:25.352Z,13.38
2022-11-30T21:53:54.617Z,11.07
2022-11-30T21:56:27.569Z,12.02
2022-11-30T21:58:55.311Z,12.20
2022-11-30T22:01:24.656Z,16.23
2022-11-30T22:03:54.180Z,13.07
2022-11-30T22:06:22.507Z,12.02
2022-11-30T22:08:50.073Z,13.98
2022-11-30T22:11:19.589Z,12.45
2022-11-30T22:13:50.927Z,14.73
2022-11-30T22:16:19.213Z,13.18
2022-11-30T22:18:47.023Z,12.70
2022-11-30T22:21:21.262Z,19.50
2022-11-30T22:24:02.956Z,10.88
2022-11-30T22:26:32.548Z,20.77
2022-11-30T22:29:08.115Z,26.20
2022-11-30T22:31:38.229Z,18.88
2022-11-30T22:34:05.480Z,16.27
2022-11-30T22:36:34.613Z,19.58
2022-11-30T22:39:09.440Z,22.15
2022-11-30T22:41:38.286Z,24.90
2022-11-30T22:44:06.173Z,22.35
2022-11-30T22:46:35.800Z,12.23
2022-11-30T22:49:06.785Z,11.05
2022-11-30T22:51:38.303Z,12.02
2022-11-30T22:54:06.659Z,12.73
2022-11-30T22:56:36.640Z,16.80
2022-11-30T22:59:13.685Z,18.65
2022-11-30T23:01:51.591Z,10.75
2022-11-30T23:04:22.826Z,12.02
2022-11-30T23:06:57.867Z,15.45
2022-11-30T23:09:28.072Z,12.45
2022-11-30T23:11:55.876Z,14.68
2022-11-30T23:14:23.418Z,11.30
2022-11-30T23:16:50.859Z,12.50
2022-11-30T23:19:18.420Z,11.20
2022-11-30T23:21:46.203Z,10.88
2022-11-30T23:24:20.886Z,12.30
2022-11-30T23:26:48.999Z,12.88
2022-11-30T23:29:17.719Z,11.80
2022-11-30T23:31:47.944Z,11.52
2022-11-30T23:34:18.526Z,10.35
2022-11-30T23:36:45.746Z,8.27
2022-11-30T23:39:15.387Z,10.13
2022-11-30T23:41:43.377Z,10.43
2022-11-30T23:44:11.436Z,8.82
2022-11-30T23:46:40.174Z,10.90
2022-11-30T23:49:09.523Z,11.50
2022-11-30T23:51:37.103Z,11.45
2022-11-30T23:54:04.725Z,8.88
2022-11-30T23:56:31.880Z,10.50
2022-11-30T23:58:59.056Z,11.85
